Terminal Aerodrome Forecast
Issued by NWS

Home | Current Version | Previous Version | Graphics & Text | Print | Product List | Glossary Off
Versions: 1 2 3 4 5 6 7 8 9 10 11 12 13 14 15 16 17 18 19 20 21 22 23 24 25 26 27 28 29 30 31 32 33 34 35 36 37 38 39 40 41 42 43 44

000
FTUS43 KDDC 282320
TAFHYS
TAF
KHYS 282320Z 2900/2924 VRB06KT P6SM SCT070
     FM290300 14003KT P6SM SKC
     FM290900 18006KT P6SM BKN150
     FM291500 18010KT P6SM OVC120
     FM291800 17014G24KT P6SM VCTS OVC090CB
      TEMPO 2919/2923 VRB15G35KT 4SM -TSRA=

USA.gov is the U.S. government's official web portal to all federal, state and local government web resources and services.